Time;durP1;ratioP1;P1;durP2;ratioP2;P2;SDS_P1;SDS_P2;PMS_P1;PMS_P2;Temp;Humidity;BMP_temperature;BMP_pressure;BME280_temperature;BME280_humidity;BME280_pressure;Samples;Min_cycle;Max_cycle;Signal;HPM_P1;HPM_P2
2023/08/15 00:00:05;;;;;;;21.80;12.20;;;;;;;22.57;63.46;100098.33;77917;1303;3028260;-64
2023/08/15 00:02:40;;;;;;;16.60;9.10;;;;;;;22.55;63.04;100098.75;77904;1306;3053464;-63
2023/08/15 00:05:07;;;;;;;16.40;9.40;;;;;;;22.50;62.51;100099.55;79198;1300;3012988;-64
2023/08/15 00:07:55;;;;;;;14.50;8.80;;;;;;;22.47;62.71;100101.33;77948;1303;3056683;-63
2023/08/15 00:10:22;;;;;;;16.60;8.80;;;;;;;22.45;62.37;100100.20;79131;1304;3013478;-62
2023/08/15 00:12:48;;;;;;;16.80;8.60;;;;;;;22.43;62.10;100097.38;79140;1298;3013035;-64
2023/08/15 00:15:18;;;;;;;14.40;8.80;;;;;;;22.43;62.05;100094.20;77939;1303;3026774;-62
2023/08/15 00:17:44;;;;;;;17.70;8.30;;;;;;;22.40;61.94;100094.27;79255;1304;3014860;-62
2023/08/15 00:20:11;;;;;;;15.70;8.30;;;;;;;22.40;61.63;100088.59;79105;1304;3011948;-63
2023/08/15 00:22:38;;;;;;;15.30;8.20;;;;;;;22.39;61.64;100092.40;77991;1304;3056603;-61
2023/08/15 00:25:05;;;;;;;20.30;8.00;;;;;;;22.39;61.58;100093.55;79119;1303;3013050;-60
2023/08/15 00:27:32;;;;;;;18.40;8.20;;;;;;;22.37;61.28;100098.14;79171;1304;3011584;-63
2023/08/15 00:30:00;;;;;;;15.20;8.00;;;;;;;22.37;61.06;100101.06;78111;1300;3026720;-61
2023/08/15 00:32:35;;;;;;;14.00;8.10;;;;;;;22.33;61.20;100102.80;79104;1303;3012475;-61
2023/08/15 00:35:04;;;;;;;12.40;7.60;;;;;;;22.32;61.60;100100.80;77940;1304;3069022;-62
2023/08/15 00:37:34;;;;;;;11.80;8.60;;;;;;;22.33;61.08;100105.52;79163;1303;3013625;-61
2023/08/15 00:40:04;;;;;;;19.00;8.40;;;;;;;22.32;61.04;100107.42;77984;1303;3049155;-62
2023/08/15 00:42:31;;;;;;;14.00;8.00;;;;;;;22.27;61.35;100106.21;79022;1301;3013448;-63
2023/08/15 00:44:58;;;;;;;12.70;7.70;;;;;;;22.24;61.56;100105.45;79116;1303;3011925;-62
2023/08/15 00:47:26;;;;;;;12.90;7.80;;;;;;;22.20;61.86;100106.59;77795;1306;3053676;-61
2023/08/15 00:49:52;;;;;;;11.20;7.60;;;;;;;22.16;62.23;100106.67;79037;1303;3012816;-62
2023/08/15 00:52:19;;;;;;;14.10;7.80;;;;;;;22.14;62.16;100110.27;78908;1300;3011663;-62
2023/08/15 00:54:47;;;;;;;15.60;8.50;;;;;;;22.12;62.21;100108.85;77801;1305;3024780;-62
2023/08/15 00:57:14;;;;;;;11.90;7.50;;;;;;;22.09;62.50;100112.52;79069;1301;3012705;-64
2023/08/15 00:59:43;;;;;;;11.20;8.00;;;;;;;22.08;62.41;100113.83;78909;1301;3011546;-62
2023/08/15 01:02:11;;;;;;;13.80;7.70;;;;;;;22.07;62.44;100113.79;77895;1303;3053374;-62
2023/08/15 01:04:39;;;;;;;10.60;7.80;;;;;;;22.05;62.73;100111.66;78979;1303;3013695;-63
2023/08/15 01:07:06;;;;;;;12.40;7.70;;;;;;;22.03;62.51;100111.67;78805;1301;3011815;-62
2023/08/15 01:09:34;;;;;;;11.80;7.60;;;;;;;21.99;62.68;100113.67;77767;1303;3049316;-61
2023/08/15 01:12:16;;;;;;;17.30;7.70;;;;;;;21.94;62.71;100117.53;79023;1299;3013678;-62
2023/08/15 01:14:50;;;;;;;15.80;7.90;;;;;;;21.94;62.75;100112.71;77885;1314;3051800;-62
2023/08/15 01:17:20;;;;;;;11.40;7.10;;;;;;;21.90;62.80;100110.23;79142;1303;3011646;-64
2023/08/15 01:19:48;;;;;;;13.90;8.10;;;;;;;21.86;62.96;100111.26;77626;1301;3069557;-62
2023/08/15 01:22:27;;;;;;;13.20;7.70;;;;;;;21.87;63.52;100110.40;79230;1301;3014839;-64
2023/08/15 01:24:55;;;;;;;13.10;7.50;;;;;;;21.92;63.32;100112.80;77848;1304;3049988;-64
2023/08/15 01:27:22;;;;;;;19.90;8.50;;;;;;;21.96;63.32;100110.59;78951;1301;3021406;-63
2023/08/15 01:29:49;;;;;;;16.90;7.60;;;;;;;21.95;63.55;100112.83;78960;1304;3013371;-63
2023/08/15 01:32:41;;;;;;;16.20;7.60;;;;;;;21.92;63.60;100114.02;77867;1304;3028049;-66
2023/08/15 01:35:13;;;;;;;10.50;6.50;;;;;;;21.89;64.13;100116.55;77557;1311;3069808;-63
2023/08/15 01:37:45;;;;;;;10.80;6.50;;;;;;;21.90;64.28;100117.90;78473;1301;3012423;-62
2023/08/15 01:40:14;;;;;;;10.00;6.90;;;;;;;21.92;63.90;100113.86;79141;1300;3013828;-61
2023/08/15 01:42:42;;;;;;;13.20;7.50;;;;;;;21.93;63.71;100112.08;77664;1306;3026731;-65
2023/08/15 01:45:09;;;;;;;10.40;6.00;;;;;;;21.95;62.70;100115.30;78919;1301;3012902;-63
2023/08/15 01:47:36;;;;;;;14.20;6.30;;;;;;;21.97;62.60;100112.77;78872;1301;3011837;-65
2023/08/15 01:50:05;;;;;;;12.20;6.90;;;;;;;21.97;62.22;100113.88;77585;1317;3028651;-61
2023/08/15 01:52:32;;;;;;;9.30;6.40;;;;;;;21.96;62.23;100114.14;79215;1304;3014488;-66
2023/08/15 01:54:58;;;;;;;8.00;6.30;;;;;;;21.96;61.54;100112.87;79190;1301;3011134;-64
2023/08/15 01:57:26;;;;;;;12.50;5.00;;;;;;;21.96;60.93;100115.21;77858;1303;3054896;-62
2023/08/15 01:59:53;;;;;;;6.50;4.80;;;;;;;21.96;59.87;100114.65;79256;1301;3011826;-62
2023/08/15 02:02:20;;;;;;;7.70;5.70;;;;;;;21.97;59.89;100114.02;79024;1301;3011535;-63
2023/08/15 02:04:48;;;;;;;7.50;5.30;;;;;;;21.98;59.80;100113.08;77954;1303;3052362;-64
2023/08/15 02:07:14;;;;;;;9.30;5.80;;;;;;;21.99;59.57;100114.27;79214;1304;3013811;-65
2023/08/15 02:09:41;;;;;;;11.40;6.00;;;;;;;22.01;59.40;100116.77;79341;1302;3011966;-63
2023/08/15 02:12:09;;;;;;;13.00;6.20;;;;;;;22.02;59.72;100116.10;77755;1306;3028502;-62
2023/08/15 02:14:35;;;;;;;6.50;4.90;;;;;;;22.02;59.68;100115.40;79137;1303;3013457;-65
2023/08/15 02:17:02;;;;;;;26.30;22.40;;;;;;;22.01;59.72;100117.07;79502;1301;3011593;-65
2023/08/15 02:19:30;;;;;;;12.50;9.10;;;;;;;22.01;59.62;100119.20;77864;1304;3025829;-62
2023/08/15 02:21:56;;;;;;;11.50;6.80;;;;;;;22.01;59.65;100122.25;78891;1304;3019826;-62
2023/08/15 02:24:23;;;;;;;20.20;14.30;;;;;;;22.00;59.55;100124.65;79021;1302;3013557;-61
2023/08/15 02:26:51;;;;;;;19.20;13.80;;;;;;;22.00;59.58;100127.66;77858;1303;3028040;-63
2023/08/15 02:29:18;;;;;;;28.20;18.80;;;;;;;22.00;59.73;100125.35;79075;1301;3013822;-64
2023/08/15 02:31:49;;;;;;;16.10;12.60;;;;;;;21.96;60.03;100124.48;78992;1306;3011918;-63
2023/08/15 02:34:17;;;;;;;12.50;7.10;;;;;;;21.97;59.77;100124.80;77822;1303;3052387;-61
2023/08/15 02:36:46;;;;;;;11.50;5.90;;;;;;;21.95;59.76;100122.55;79030;1300;3013651;-64
2023/08/15 02:39:18;;;;;;;12.30;5.90;;;;;;;21.94;59.94;100122.14;78556;1300;3011969;-62
2023/08/15 02:41:44;;;;;;;6.60;5.10;;;;;;;21.92;59.65;100124.33;79121;1299;3011673;-64
2023/08/15 02:44:13;;;;;;;9.40;5.70;;;;;;;21.90;59.84;100124.38;77771;1303;3029262;-62
2023/08/15 02:46:40;;;;;;;9.10;5.70;;;;;;;21.89;59.99;100126.61;79045;1301;3012961;-63
2023/08/15 02:49:06;;;;;;;14.90;5.70;;;;;;;21.89;59.94;100128.73;79070;1304;3011843;-63
2023/08/15 02:51:34;;;;;;;8.10;5.50;;;;;;;21.89;60.09;100126.61;77934;1303;3025781;-63
2023/08/15 02:54:01;;;;;;;11.00;6.10;;;;;;;21.87;60.10;100128.25;79000;1304;3012953;-62
2023/08/15 02:56:27;;;;;;;10.80;5.30;;;;;;;21.85;60.25;100132.70;79054;1303;3011953;-63
2023/08/15 02:58:55;;;;;;;10.00;5.40;;;;;;;21.84;60.25;100131.52;77821;1303;3028575;-60
2023/08/15 03:01:23;;;;;;;12.50;6.00;;;;;;;21.86;60.36;100131.02;79025;1300;3020713;-63
2023/08/15 03:03:50;;;;;;;10.40;5.40;;;;;;;21.86;60.33;100131.52;79075;1303;3013552;-62
2023/08/15 03:06:18;;;;;;;8.00;5.60;;;;;;;21.86;60.51;100133.36;77795;1314;3051954;-63
2023/08/15 03:08:46;;;;;;;18.30;6.30;;;;;;;21.86;60.55;100136.20;79153;1303;3015591;-66
2023/08/15 03:11:13;;;;;;;12.90;6.50;;;;;;;21.84;60.70;100133.52;78898;1302;3013247;-66
2023/08/15 03:13:41;;;;;;;10.00;5.50;;;;;;;21.88;60.34;100133.30;77826;1303;3057015;-62
2023/08/15 03:16:07;;;;;;;11.50;6.10;;;;;;;21.93;60.54;100133.57;79041;1299;3012818;-64
2023/08/15 03:18:34;;;;;;;12.50;7.10;;;;;;;21.98;60.24;100132.88;79184;1301;3011787;-62
2023/08/15 03:21:03;;;;;;;11.80;6.50;;;;;;;22.01;60.40;100137.96;77723;1301;3026715;-63
2023/08/15 03:23:31;;;;;;;12.90;7.80;;;;;;;22.02;60.75;100136.20;79310;1300;3011770;-63
2023/08/15 03:25:58;;;;;;;11.90;6.40;;;;;;;22.00;60.69;100139.80;79125;1301;3011937;-63
2023/08/15 03:28:30;;;;;;;12.50;6.20;;;;;;;21.99;60.60;100143.80;77936;1301;3056804;-63
2023/08/15 03:30:57;;;;;;;8.50;6.40;;;;;;;21.98;60.87;100146.70;79210;1299;3013283;-64
2023/08/15 03:33:25;;;;;;;12.60;6.90;;;;;;;21.98;60.91;100146.39;79157;1303;3013113;-63
2023/08/15 03:35:53;;;;;;;13.00;6.90;;;;;;;22.01;61.03;100151.64;77959;1303;3052509;-63
2023/08/15 03:38:21;;;;;;;10.50;6.70;;;;;;;22.03;60.80;100154.87;79064;1303;3013428;-63
2023/08/15 03:40:49;;;;;;;10.90;6.20;;;;;;;22.04;60.96;100157.62;79022;1305;3011634;-64
2023/08/15 03:43:17;;;;;;;10.80;6.70;;;;;;;22.04;60.88;100163.54;77909;1303;3057507;-62
2023/08/15 03:45:44;;;;;;;11.50;7.00;;;;;;;22.02;60.94;100165.49;79078;1301;3012953;-65
2023/08/15 03:48:11;;;;;;;9.00;6.70;;;;;;;21.99;61.24;100165.74;79082;1299;3011655;-67
2023/08/15 03:50:39;;;;;;;11.70;6.60;;;;;;;22.01;61.11;100170.00;77893;1300;3052442;-62
2023/08/15 03:53:05;;;;;;;10.50;6.30;;;;;;;22.02;61.27;100169.71;79124;1300;3011355;-64
2023/08/15 03:55:32;;;;;;;11.50;6.90;;;;;;;22.02;61.22;100171.39;79130;1303;3012179;-65
2023/08/15 03:58:00;;;;;;;13.60;6.60;;;;;;;22.07;61.13;100170.16;77973;1306;3028744;-66
2023/08/15 04:00:26;;;;;;;12.20;6.50;;;;;;;22.09;61.46;100170.27;79229;1298;3013279;-60
2023/08/15 04:02:53;;;;;;;11.30;6.70;;;;;;;22.12;61.60;100172.86;79127;1298;3011647;-72
2023/08/15 04:05:21;;;;;;;11.90;7.30;;;;;;;22.15;61.71;100179.58;77947;1303;3028215;-59
2023/08/15 04:07:47;;;;;;;13.00;8.10;;;;;;;22.16;61.92;100174.95;79165;1302;3013216;-62
2023/08/15 04:10:15;;;;;;;14.90;7.80;;;;;;;22.20;62.01;100174.75;79125;1303;3011740;-63
2023/08/15 04:12:46;;;;;;;15.60;9.10;;;;;;;22.25;61.89;100170.55;78027;1303;3025715;-62
2023/08/15 04:15:12;;;;;;;19.20;9.90;;;;;;;22.30;62.19;100171.85;79336;1303;3011815;-61
2023/08/15 04:17:41;;;;;;;18.20;10.30;;;;;;;22.35;62.33;100172.45;78643;1305;3012937;-64
2023/08/15 04:20:10;;;;;;;16.10;10.70;;;;;;;22.38;62.15;100170.48;79272;1305;3011472;-63
2023/08/15 04:22:37;;;;;;;18.70;11.40;;;;;;;22.43;62.60;100162.89;79063;1306;3011926;-64
2023/08/15 04:25:09;;;;;;;16.70;10.90;;;;;;;22.46;62.36;100169.72;77741;1306;3069994;-64
2023/08/15 04:27:37;;;;;;;21.20;11.00;;;;;;;22.52;62.44;100166.66;79169;1303;3011754;-63
2023/08/15 04:30:05;;;;;;;17.20;10.30;;;;;;;22.57;62.27;100167.17;77815;1305;3055232;-63
2023/08/15 04:32:32;;;;;;;24.30;10.60;;;;;;;22.62;62.22;100164.94;79364;1301;3012990;-61
2023/08/15 04:34:59;;;;;;;18.80;11.00;;;;;;;22.68;62.14;100167.49;79052;1301;3013209;-62
2023/08/15 04:37:27;;;;;;;15.10;10.20;;;;;;;22.74;62.02;100169.96;77674;1306;3053219;-63
2023/08/15 04:39:54;;;;;;;14.90;10.40;;;;;;;22.80;61.86;100167.25;79184;1303;3018366;-64
2023/08/15 04:42:20;;;;;;;23.60;10.40;;;;;;;22.86;61.78;100167.02;78827;1301;3011662;-63
2023/08/15 04:44:48;;;;;;;18.90;11.10;;;;;;;22.91;61.66;100171.48;78091;1299;3028355;-62
2023/08/15 04:47:15;;;;;;;15.80;10.30;;;;;;;22.96;61.39;100169.70;78984;1301;3018666;-66
2023/08/15 04:49:42;;;;;;;15.60;10.40;;;;;;;22.99;61.28;100170.71;78931;1299;3011947;-66
2023/08/15 04:52:14;;;;;;;18.10;10.50;;;;;;;23.01;61.19;100174.41;77886;1303;3053641;-66
2023/08/15 04:54:41;;;;;;;16.80;10.70;;;;;;;23.04;61.19;100178.52;78943;1306;3013470;-64
2023/08/15 04:57:10;;;;;;;14.60;11.40;;;;;;;23.07;61.27;100176.65;77864;1299;3025962;-65
2023/08/15 04:59:36;;;;;;;21.90;11.00;;;;;;;23.13;61.05;100180.17;79115;1299;3013843;-65
2023/08/15 05:02:03;;;;;;;15.70;11.10;;;;;;;23.17;60.97;100176.36;79058;1303;3013309;-63
2023/08/15 05:04:31;;;;;;;18.30;11.40;;;;;;;23.24;60.83;100177.57;77726;1301;3025904;-61
2023/08/15 05:07:00;;;;;;;15.00;10.30;;;;;;;23.32;60.88;100181.46;78877;1306;3013398;-61
2023/08/15 05:09:30;;;;;;;16.90;11.00;;;;;;;23.38;60.85;100182.65;77906;1303;3052290;-64
2023/08/15 05:11:57;;;;;;;15.40;11.40;;;;;;;23.40;61.20;100181.15;78954;1303;3013294;-61
2023/08/15 05:14:25;;;;;;;14.80;10.90;;;;;;;23.47;60.92;100176.92;79180;1302;3011597;-63
2023/08/15 05:16:53;;;;;;;19.10;11.00;;;;;;;23.55;60.77;100178.17;78071;1304;3029041;-63
2023/08/15 05:19:20;;;;;;;20.20;10.80;;;;;;;23.60;60.78;100177.80;79078;1301;3011915;-65
2023/08/15 05:21:47;;;;;;;18.20;11.50;;;;;;;23.68;60.60;100184.01;79174;1303;3011760;-66
2023/08/15 05:24:14;;;;;;;19.30;10.70;;;;;;;23.76;60.63;100180.52;77900;1300;3052000;-61
2023/08/15 05:26:41;;;;;;;23.40;11.10;;;;;;;23.84;60.60;100180.17;78972;1303;3013676;-63
2023/08/15 05:29:09;;;;;;;21.20;11.00;;;;;;;23.90;60.77;100177.58;79002;1300;3013493;-65
2023/08/15 05:31:37;;;;;;;19.70;10.30;;;;;;;23.92;60.92;100182.41;77888;1303;3049373;-65
2023/08/15 05:34:04;;;;;;;16.10;9.80;;;;;;;23.94;60.67;100184.20;79221;1298;3013871;-65
2023/08/15 05:36:32;;;;;;;13.50;10.10;;;;;;;24.01;60.39;100182.91;79102;1298;3011419;-68
2023/08/15 05:39:04;;;;;;;16.60;10.10;;;;;;;24.10;60.22;100181.09;78002;1303;3052667;-63
2023/08/15 05:41:31;;;;;;;13.10;10.00;;;;;;;24.18;60.15;100189.50;78944;1300;3011923;-62
2023/08/15 05:43:59;;;;;;;13.70;9.40;;;;;;;24.26;60.05;100187.56;77871;1303;3029211;-65
2023/08/15 05:46:25;;;;;;;15.60;9.30;;;;;;;24.33;59.79;100182.15;79022;1299;3013775;-64
2023/08/15 05:48:52;;;;;;;17.80;9.10;;;;;;;24.41;59.43;100182.52;79129;1299;3013957;-68
2023/08/15 05:51:20;;;;;;;14.30;8.10;;;;;;;24.53;59.07;100180.24;78084;1303;3028246;-63
2023/08/15 05:53:46;;;;;;;17.90;7.60;;;;;;;24.59;58.34;100179.19;79087;1303;3013342;-69
2023/08/15 05:56:13;;;;;;;13.00;7.20;;;;;;;24.68;57.65;100178.45;79109;1303;3013110;-61
2023/08/15 05:58:41;;;;;;;13.00;6.90;;;;;;;24.72;56.98;100179.97;77858;1303;3028920;-63
2023/08/15 06:01:08;;;;;;;17.20;6.70;;;;;;;24.81;56.75;100179.38;79241;1300;3013497;-63
2023/08/15 06:03:34;;;;;;;13.10;6.40;;;;;;;24.90;56.16;100177.87;79115;1301;3011713;-63
2023/08/15 06:06:03;;;;;;;9.90;5.60;;;;;;;24.95;55.42;100179.20;77959;1301;3029821;-68
2023/08/15 06:08:31;;;;;;;13.90;6.40;;;;;;;25.00;55.12;100181.28;79235;1303;3012037;-59
2023/08/15 06:10:58;;;;;;;10.60;6.60;;;;;;;25.04;54.79;100181.48;79080;1301;3012008;-62
2023/08/15 06:13:26;;;;;;;15.70;6.40;;;;;;;25.08;54.73;100181.01;77876;1303;3051609;-62
2023/08/15 06:15:53;;;;;;;13.80;6.40;;;;;;;25.16;54.66;100185.53;79072;1299;3013226;-66
2023/08/15 06:18:19;;;;;;;14.20;6.50;;;;;;;25.23;54.62;100190.07;79135;1301;3013855;-64
2023/08/15 06:20:49;;;;;;;12.00;7.30;;;;;;;25.33;54.43;100182.21;77903;1303;3028414;-66
2023/08/15 06:23:16;;;;;;;15.80;6.90;;;;;;;25.42;54.17;100184.45;79159;1303;3013659;-68
2023/08/15 06:25:42;;;;;;;23.10;7.80;;;;;;;25.43;53.88;100186.33;79111;1304;3013690;-63
2023/08/15 06:28:10;;;;;;;13.00;7.20;;;;;;;25.47;53.85;100186.63;78077;1300;3051717;-66
2023/08/15 06:30:41;;;;;;;22.90;8.00;;;;;;;25.51;53.58;100189.90;79273;1298;3013570;-64
2023/08/15 06:33:10;;;;;;;14.70;6.60;;;;;;;25.56;53.73;100188.10;78777;1299;3011707;-65
2023/08/15 06:35:36;;;;;;;10.70;6.00;;;;;;;25.64;53.11;100186.33;79237;1301;3018853;-63
2023/08/15 06:38:03;;;;;;;13.90;6.20;;;;;;;25.70;52.55;100186.58;78996;1300;3011850;-69
2023/08/15 06:40:31;;;;;;;16.90;6.80;;;;;;;25.79;52.46;100188.52;77879;1304;3025942;-66
2023/08/15 06:42:58;;;;;;;16.70;7.20;;;;;;;25.83;52.29;100189.08;79206;1301;3013734;-62
2023/08/15 06:45:24;;;;;;;28.20;9.60;;;;;;;25.91;52.11;100188.23;79096;1299;3012373;-62
2023/08/15 06:47:52;;;;;;;24.70;10.00;;;;;;;25.93;52.01;100184.86;77904;1303;3027500;-63
2023/08/15 06:50:19;;;;;;;25.40;10.90;;;;;;;25.96;51.97;100182.89;79164;1301;3015912;-69
2023/08/15 06:52:45;;;;;;;27.00;11.50;;;;;;;25.89;51.84;100183.17;79150;1300;3011767;-64
2023/08/15 06:55:13;;;;;;;35.10;12.80;;;;;;;25.92;51.35;100181.52;78050;1301;3028261;-65
2023/08/15 06:57:40;;;;;;;35.90;11.50;;;;;;;26.04;51.16;100182.70;79268;1303;3013137;-60
2023/08/15 07:00:09;;;;;;;29.00;11.40;;;;;;;26.15;50.94;100178.95;79102;1303;3013275;-67
2023/08/15 07:02:37;;;;;;;30.90;10.80;;;;;;;26.23;50.55;100181.13;78172;1300;3049624;-65
2023/08/15 07:05:05;;;;;;;25.00;10.00;;;;;;;26.28;50.49;100179.98;79040;1301;3013654;-68
2023/08/15 07:07:31;;;;;;;22.50;10.00;;;;;;;26.30;50.50;100183.12;79171;1302;3011651;-64
2023/08/15 07:09:59;;;;;;;26.20;9.10;;;;;;;26.42;50.27;100186.98;77974;1303;3053465;-65
2023/08/15 07:12:26;;;;;;;17.60;8.40;;;;;;;26.50;50.02;100186.09;79235;1300;3012400;-64
2023/08/15 07:14:52;;;;;;;20.20;8.70;;;;;;;26.55;49.42;100188.89;79127;1300;3011946;-62
2023/08/15 07:17:20;;;;;;;20.50;7.60;;;;;;;26.58;48.93;100186.70;77803;1303;3028530;-67
2023/08/15 07:19:47;;;;;;;25.00;7.50;;;;;;;26.65;48.94;100188.20;79294;1300;3012615;-63
2023/08/15 07:22:13;;;;;;;15.30;6.60;;;;;;;26.72;48.78;100190.34;79061;1303;3011485;-62
2023/08/15 07:24:41;;;;;;;19.40;7.90;;;;;;;26.76;48.59;100187.66;77870;1303;3026124;-63
2023/08/15 07:27:08;;;;;;;13.60;6.40;;;;;;;26.89;48.71;100185.96;79118;1303;3013308;-62
2023/08/15 07:29:35;;;;;;;11.80;6.60;;;;;;;26.99;47.87;100182.63;79093;1303;3012841;-63
2023/08/15 07:32:06;;;;;;;14.30;5.80;;;;;;;27.07;47.73;100184.14;77945;1301;3025962;-61
2023/08/15 07:34:32;;;;;;;17.90;5.90;;;;;;;27.16;47.01;100183.72;79136;1300;3013584;-60
2023/08/15 07:37:01;;;;;;;12.50;5.90;;;;;;;27.16;46.99;100185.17;78525;1301;3011644;-62
2023/08/15 07:39:28;;;;;;;13.60;5.60;;;;;;;27.21;47.11;100185.93;79232;1300;3019108;-61
2023/08/15 07:41:54;;;;;;;15.80;5.90;;;;;;;27.30;46.76;100187.42;79069;1303;3011785;-61
2023/08/15 07:44:23;;;;;;;12.50;6.10;;;;;;;27.38;46.56;100188.43;77834;1303;3028327;-63
2023/08/15 07:46:50;;;;;;;14.90;5.10;;;;;;;27.46;46.27;100183.86;79248;1299;3013025;-62
2023/08/15 07:49:16;;;;;;;9.40;3.90;;;;;;;27.53;46.17;100184.36;78982;1299;3012297;-61
2023/08/15 07:51:44;;;;;;;11.10;3.60;;;;;;;27.60;46.23;100185.02;77972;1300;3050196;-62
2023/08/15 07:54:11;;;;;;;10.40;3.70;;;;;;;27.68;46.50;100182.09;79047;1303;3013362;-62
2023/08/15 07:56:37;;;;;;;11.20;3.70;;;;;;;27.73;46.38;100186.00;79100;1303;3013126;-62
2023/08/15 07:59:05;;;;;;;4.90;3.60;;;;;;;27.81;45.48;100186.27;77964;1302;3026364;-62
2023/08/15 08:01:33;;;;;;;7.30;3.30;;;;;;;27.87;45.04;100187.70;79159;1298;3012885;-62
2023/08/15 08:04:00;;;;;;;7.10;3.20;;;;;;;27.98;45.58;100187.50;79138;1298;3011621;-60
2023/08/15 08:06:28;;;;;;;9.80;3.50;;;;;;;28.07;45.64;100186.73;77969;1303;3050075;-62
2023/08/15 08:08:55;;;;;;;5.80;3.00;;;;;;;28.11;45.92;100186.03;79137;1303;3019152;-60
2023/08/15 08:11:21;;;;;;;8.80;3.30;;;;;;;28.14;46.26;100189.16;78979;1304;3011661;-61
2023/08/15 08:13:49;;;;;;;8.10;3.40;;;;;;;28.21;46.44;100185.92;78515;1299;3026499;-62
2023/08/15 08:16:17;;;;;;;7.50;3.50;;;;;;;28.27;46.01;100182.83;79166;1300;3013644;-62
2023/08/15 08:18:43;;;;;;;4.90;3.10;;;;;;;28.30;45.05;100179.80;79404;1299;3011859;-62
2023/08/15 08:21:11;;;;;;;12.40;3.50;;;;;;;28.36;44.95;100180.73;77977;1303;3050194;-63
2023/08/15 08:23:38;;;;;;;6.90;3.30;;;;;;;28.40;44.75;100177.10;79527;1303;3013467;-63
2023/08/15 08:26:04;;;;;;;5.30;3.20;;;;;;;28.55;44.23;100171.79;79224;1300;3013825;-62
2023/08/15 08:28:32;;;;;;;4.70;3.40;;;;;;;28.67;42.52;100171.64;78095;1301;3026384;-62
2023/08/15 08:30:59;;;;;;;5.20;3.20;;;;;;;28.74;42.58;100167.60;79335;1303;3013404;-61
2023/08/15 08:33:26;;;;;;;7.40;3.00;;;;;;;28.74;42.88;100172.23;79143;1303;3011695;-63
2023/08/15 08:35:54;;;;;;;4.30;2.80;;;;;;;28.86;42.34;100167.02;78026;1299;3026536;-60
2023/08/15 08:38:20;;;;;;;4.60;2.80;;;;;;;28.87;41.99;100162.57;79125;1303;3013204;-62
2023/08/15 08:40:47;;;;;;;5.30;2.90;;;;;;;28.99;41.83;100161.90;79033;1303;3013631;-61
2023/08/15 08:43:15;;;;;;;6.10;2.70;;;;;;;29.06;41.76;100161.05;77981;1303;3028743;-65
2023/08/15 08:45:46;;;;;;;7.40;3.20;;;;;;;29.12;41.83;100164.61;79214;1301;3012850;-61
2023/08/15 08:48:14;;;;;;;4.60;3.20;;;;;;;29.23;41.75;100161.00;77874;1299;3053362;-63
2023/08/15 08:50:41;;;;;;;11.20;3.40;;;;;;;29.34;41.47;100157.00;78843;1306;3013477;-62
2023/08/15 08:53:07;;;;;;;6.70;3.50;;;;;;;29.37;41.75;100155.85;79055;1303;3014148;-63
2023/08/15 08:55:35;;;;;;;7.80;3.00;;;;;;;29.35;41.81;100153.20;77645;1304;3028754;-60
2023/08/15 08:58:02;;;;;;;6.80;3.40;;;;;;;29.31;41.56;100148.13;79167;1300;3013780;-61
2023/08/15 09:00:34;;;;;;;6.10;3.60;;;;;;;29.36;41.84;100148.39;79169;1301;3011546;-62
2023/08/15 09:03:02;;;;;;;7.80;3.60;;;;;;;29.45;41.00;100143.36;77903;1301;3052647;-63
2023/08/15 09:05:29;;;;;;;7.40;3.70;;;;;;;29.54;41.30;100141.03;79064;1301;3012625;-62
2023/08/15 09:07:55;;;;;;;6.80;2.90;;;;;;;29.65;41.11;100140.41;79054;1304;3013283;-62
2023/08/15 09:10:23;;;;;;;8.00;3.20;;;;;;;29.72;39.91;100139.07;77801;1300;3026250;-64
2023/08/15 09:12:50;;;;;;;7.20;3.40;;;;;;;29.77;40.05;100136.66;78993;1303;3013646;-62
2023/08/15 09:15:17;;;;;;;5.70;3.00;;;;;;;29.85;39.80;100135.83;79051;1303;3011463;-61
2023/08/15 09:17:44;;;;;;;5.50;3.10;;;;;;;29.89;39.24;100134.33;77934;1299;3028841;-62
2023/08/15 09:20:18;;;;;;;7.60;2.90;;;;;;;29.90;39.38;100133.60;79088;1300;3013302;-66
2023/08/15 09:22:46;;;;;;;5.30;3.20;;;;;;;29.90;40.14;100132.70;77789;1304;3052201;-65
2023/08/15 09:25:15;;;;;;;4.30;3.10;;;;;;;29.96;39.76;100138.71;79508;1301;3013112;-62
2023/08/15 09:27:42;;;;;;;12.40;3.50;;;;;;;30.09;39.09;100135.91;79025;1301;3012981;-62
2023/08/15 09:30:11;;;;;;;8.10;3.00;;;;;;;30.20;38.38;100137.96;77785;1303;3049008;-61
2023/08/15 09:32:40;;;;;;;5.80;3.50;;;;;;;30.17;37.89;100135.46;79216;1298;3013797;-60
2023/08/15 09:35:10;;;;;;;7.50;3.40;;;;;;;30.24;38.32;100133.52;78574;1303;3014022;-61
2023/08/15 09:37:45;;;;;;;7.80;3.40;;;;;;;30.27;39.43;100128.27;79035;1301;3016046;-62
2023/08/15 09:40:16;;;;;;;9.40;3.70;;;;;;;30.34;39.97;100127.23;77881;1303;3053252;-62
2023/08/15 09:42:43;;;;;;;5.80;3.30;;;;;;;30.34;40.11;100126.81;79089;1300;3011893;-65
2023/08/15 09:45:15;;;;;;;4.90;3.60;;;;;;;30.43;39.64;100130.13;76956;1300;3050693;-61
2023/08/15 09:47:43;;;;;;;3.70;2.90;;;;;;;30.52;38.36;100125.69;78064;1304;3049001;-63
2023/08/15 09:50:11;;;;;;;9.30;3.50;;;;;;;30.59;38.32;100126.56;79158;1301;3014757;-62
2023/08/15 09:52:39;;;;;;;8.90;2.90;;;;;;;30.69;37.72;100132.98;79058;1301;3013102;-62
2023/08/15 09:55:09;;;;;;;7.80;3.20;;;;;;;30.78;36.84;100129.14;77924;1306;3053710;-63
2023/08/15 09:57:37;;;;;;;5.80;3.00;;;;;;;30.88;36.24;100125.63;79244;1299;3013294;-64
2023/08/15 10:00:11;;;;;;;6.20;3.20;;;;;;;30.80;37.18;100123.59;78499;1301;3012023;-65
2023/08/15 10:03:00;;;;;;;7.90;3.40;;;;;;;30.87;38.13;100119.38;77771;1303;3057395;-60
2023/08/15 10:05:32;;;;;;;6.40;3.20;;;;;;;30.90;38.55;100117.36;77849;1304;3049940;-63
2023/08/15 10:07:59;;;;;;;8.60;2.90;;;;;;;30.94;38.18;100119.09;79113;1301;3011869;-64
2023/08/15 10:10:27;;;;;;;4.90;2.80;;;;;;;31.02;36.30;100121.11;77887;1303;3028994;-63
2023/08/15 10:12:54;;;;;;;3.40;2.80;;;;;;;30.98;36.35;100123.69;79250;1303;3013087;-61
2023/08/15 10:15:21;;;;;;;4.40;3.10;;;;;;;31.03;37.15;100117.80;79182;1303;3011569;-65
2023/08/15 10:17:49;;;;;;;3.80;3.10;;;;;;;31.06;36.73;100117.52;77768;1301;3051797;-63
2023/08/15 10:20:20;;;;;;;5.80;3.50;;;;;;;31.22;36.80;100118.07;79173;1301;3011979;-63
2023/08/15 10:22:54;;;;;;;8.10;3.30;;;;;;;31.32;37.37;100112.87;77931;1303;3053286;-67
2023/08/15 10:25:24;;;;;;;6.20;3.60;;;;;;;31.39;36.38;100112.54;79103;1300;3012982;-63
2023/08/15 10:27:53;;;;;;;10.10;3.30;;;;;;;31.43;36.21;100112.19;77839;1299;3052648;-65
2023/08/15 10:30:30;;;;;;;9.30;3.20;;;;;;;31.57;35.72;100113.39;79253;1301;3013458;-62
2023/08/15 10:32:59;;;;;;;5.60;3.00;;;;;;;31.44;35.58;100110.80;77831;1301;3052760;-63
2023/08/15 10:35:26;;;;;;;4.70;3.00;;;;;;;31.31;36.24;100106.48;79133;1301;3013826;-60
2023/08/15 10:37:54;;;;;;;6.00;3.20;;;;;;;31.34;36.42;100107.63;79031;1301;3011840;-62
2023/08/15 10:40:27;;;;;;;4.70;3.30;;;;;;;31.48;35.95;100106.63;77832;1304;3049389;-64
2023/08/15 10:43:05;;;;;;;4.80;3.10;;;;;;;31.51;35.01;100110.77;78869;1306;3011856;-61
2023/08/15 10:45:38;;;;;;;6.10;2.90;;;;;;;31.56;35.29;100104.91;77768;1304;3053241;-62
2023/08/15 10:48:06;;;;;;;3.70;2.80;;;;;;;31.62;35.01;100106.46;78967;1303;3012752;-62
2023/08/15 10:50:34;;;;;;;5.10;3.00;;;;;;;31.72;33.60;100106.41;77904;1303;3051624;-61
2023/08/15 10:53:02;;;;;;;7.30;2.80;;;;;;;31.80;31.84;100102.23;79078;1301;3013398;-67
2023/08/15 10:55:31;;;;;;;4.10;2.50;;;;;;;31.83;32.77;100101.21;79165;1301;3011745;-65
2023/08/15 10:57:58;;;;;;;5.60;3.30;;;;;;;31.86;32.07;100097.94;78000;1304;3042038;-62
2023/08/15 11:00:25;;;;;;;6.20;3.30;;;;;;;32.02;32.72;100097.29;78982;1306;3011574;-63
2023/08/15 11:02:51;;;;;;;5.60;3.40;;;;;;;32.12;33.04;100097.69;79245;1303;3013247;-63
2023/08/15 11:05:19;;;;;;;7.90;3.10;;;;;;;32.02;32.58;100091.98;77630;1302;3028133;-61